Time;durP1;ratioP1;P1;durP2;ratioP2;P2;SDS_P1;SDS_P2;PMS_P1;PMS_P2;Temp;Humidity;BMP_temperature;BMP_pressure;BME280_temperature;BME280_humidity;BME280_pressure;Samples;Min_cycle;Max_cycle;Signal;HPM_P1;HPM_P2
2021/03/19 00:00:12;;;;;;;38.25;22.77;;;;;;;4.73;73.38;100307.91;2952134;80;21161;-65
2021/03/19 00:04:18;;;;;;;35.40;22.20;;;;;;;4.67;73.06;100309.09;2952029;80;21161;-67
2021/03/19 00:08:21;;;;;;;31.55;23.85;;;;;;;4.64;73.21;100309.75;2952306;80;21173;-65
2021/03/19 00:12:24;;;;;;;51.68;29.42;;;;;;;4.49;72.42;100298.28;2952320;80;21149;-65
2021/03/19 00:16:27;;;;;;;47.15;30.32;;;;;;;4.20;72.80;100296.81;2952183;80;21451;-63
2021/03/19 00:25:00;;;;;;;35.65;24.70;;;;;;;3.69;75.14;100303.88;2921921;81;21155;-63
2021/03/19 00:29:03;;;;;;;39.88;26.35;;;;;;;3.61;76.04;100305.20;2932933;81;21584;-66
2021/03/19 00:33:07;;;;;;;43.20;26.70;;;;;;;3.64;76.45;100306.36;2908991;81;21158;-67
2021/03/19 00:37:10;;;;;;;50.00;28.62;;;;;;;3.60;76.14;100302.20;2849405;82;21144;-66
2021/03/19 00:41:13;;;;;;;41.23;26.55;;;;;;;3.51;76.82;100299.58;2832971;84;21200;-64
2021/03/19 00:45:18;;;;;;;33.70;21.17;;;;;;;3.53;77.35;100294.61;2881145;81;21167;-64
2021/03/19 00:49:23;;;;;;;37.03;22.87;;;;;;;3.49;77.33;100295.70;2833014;84;21180;-66
2021/03/19 00:53:26;;;;;;;48.35;32.83;;;;;;;3.47;77.79;100296.25;2832804;84;21658;-66
2021/03/19 00:57:31;;;;;;;39.10;24.60;;;;;;;3.43;77.97;100289.45;2832908;84;21189;-67
2021/03/19 01:01:35;;;;;;;39.85;24.30;;;;;;;3.49;78.41;100290.44;2832780;84;21149;-66
2021/03/19 01:05:44;;;;;;;44.38;24.45;;;;;;;3.50;78.19;100293.45;2832667;84;21181;-67
2021/03/19 01:09:46;;;;;;;33.83;24.00;;;;;;;3.52;78.52;100290.76;2832779;84;21185;-66
2021/03/19 01:13:49;;;;;;;37.03;24.20;;;;;;;3.64;78.58;100289.26;2832518;84;21145;-66
2021/03/19 01:17:53;;;;;;;40.95;26.25;;;;;;;3.72;78.47;100277.84;2832772;84;21205;-66
2021/03/19 01:21:56;;;;;;;29.05;21.25;;;;;;;3.77;78.82;100281.11;2830376;84;21196;-65
2021/03/19 01:25:59;;;;;;;44.98;28.87;;;;;;;3.80;78.26;100283.57;2823057;84;21157;-66
2021/03/19 01:30:07;;;;;;;41.30;25.70;;;;;;;3.83;78.50;100287.34;2822970;84;21147;-65
2021/03/19 01:34:10;;;;;;;39.55;26.82;;;;;;;3.83;78.14;100289.98;2823225;84;21140;-65
2021/03/19 01:38:13;;;;;;;41.00;25.95;;;;;;;3.79;78.62;100293.72;2823253;84;21129;-65
2021/03/19 01:42:16;;;;;;;45.43;28.45;;;;;;;3.88;78.40;100291.05;2822158;83;21145;-66
2021/03/19 01:47:15;;;;;;;34.83;21.90;;;;;;;3.89;78.73;100294.06;2836258;82;21144;-65
2021/03/19 01:52:14;;;;;;;27.62;21.60;;;;;;;4.02;78.68;100288.13;2855128;82;21161;-65
2021/03/19 01:57:12;;;;;;;35.85;20.10;;;;;;;4.22;78.65;100287.87;2867622;82;21187;-66
2021/03/19 02:02:11;;;;;;;27.82;19.98;;;;;;;4.39;78.10;100288.27;2823127;84;21176;-67
2021/03/19 02:07:10;;;;;;;28.80;19.75;;;;;;;4.54;77.61;100283.08;2823007;84;21177;-65
2021/03/19 02:12:09;;;;;;;26.30;19.62;;;;;;;4.67;77.30;100288.02;2822692;84;21181;-64
2021/03/19 02:17:07;;;;;;;23.02;18.57;;;;;;;4.77;76.93;100292.77;2822787;84;21188;-65
2021/03/19 02:22:07;;;;;;;26.77;18.55;;;;;;;4.82;76.71;100296.84;2822644;84;22253;-67
2021/03/19 02:27:05;;;;;;;33.02;20.12;;;;;;;4.92;76.44;100287.08;2820481;84;21170;-65
2021/03/19 02:31:11;;;;;;;33.83;20.70;;;;;;;4.91;76.06;100284.89;2820643;84;21143;-65
2021/03/19 02:35:22;;;;;;;31.90;19.85;;;;;;;4.81;75.95;100281.11;2821009;84;21194;-66
2021/03/19 02:39:25;;;;;;;30.57;20.35;;;;;;;4.75;75.94;100284.94;2820662;84;21154;-66
2021/03/19 02:43:30;;;;;;;26.10;19.25;;;;;;;4.73;76.03;100278.08;2820592;84;21178;-65
2021/03/19 02:47:33;;;;;;;36.77;23.07;;;;;;;4.75;76.19;100284.94;2820547;84;21632;-65
2021/03/19 02:51:36;;;;;;;26.70;20.08;;;;;;;4.77;75.93;100288.33;2820472;84;21200;-65
2021/03/19 02:55:39;;;;;;;33.48;17.25;;;;;;;4.70;75.29;100283.88;2820459;84;21198;-64
2021/03/19 02:59:42;;;;;;;30.50;21.33;;;;;;;4.46;75.65;100284.83;2825419;83;21158;-65
2021/03/19 03:03:45;;;;;;;32.80;22.00;;;;;;;4.25;76.37;100285.09;2845883;83;22208;-65
2021/03/19 03:07:48;;;;;;;40.98;24.23;;;;;;;4.24;77.34;100294.39;2836074;83;21166;-66
2021/03/19 03:11:52;;;;;;;36.73;24.10;;;;;;;4.29;77.53;100285.75;2820570;84;21181;-65
2021/03/19 03:15:55;;;;;;;39.98;25.97;;;;;;;4.38;77.71;100291.84;2820351;84;21644;-64
2021/03/19 03:19:58;;;;;;;32.67;23.25;;;;;;;4.49;77.50;100291.69;2820542;84;21147;-65
2021/03/19 03:24:05;;;;;;;37.90;22.25;;;;;;;4.53;77.25;100302.46;2817734;83;21172;-66
2021/03/19 03:28:10;;;;;;;35.85;23.42;;;;;;;4.52;77.16;100300.28;2820017;84;21168;-65
2021/03/19 03:32:13;;;;;;;37.15;25.08;;;;;;;4.50;77.38;100309.19;2820060;84;21167;-65
2021/03/19 03:36:17;;;;;;;32.95;23.45;;;;;;;4.52;77.58;100312.59;2819839;83;21160;-65
2021/03/19 03:40:32;;;;;;;38.90;27.00;;;;;;;4.56;77.53;100312.34;2819742;84;21168;-66
2021/03/19 03:44:35;;;;;;;35.25;26.02;;;;;;;4.51;77.26;100314.84;2819843;84;21168;-66
2021/03/19 03:48:39;;;;;;;35.00;25.30;;;;;;;4.27;77.36;100313.96;2831158;83;21182;-64
2021/03/19 03:52:42;;;;;;;42.00;24.40;;;;;;;4.11;77.91;100322.69;2869189;83;21166;-64
2021/03/19 03:56:45;;;;;;;38.35;30.05;;;;;;;4.02;78.44;100325.84;2869091;83;21626;-65
2021/03/19 04:00:48;;;;;;;35.17;22.55;;;;;;;3.96;78.74;100324.86;2865533;82;21165;-66
2021/03/19 04:04:52;;;;;;;39.35;24.25;;;;;;;3.90;79.16;100325.17;2839556;83;21209;-66
2021/03/19 04:08:54;;;;;;;42.73;26.17;;;;;;;3.94;79.28;100322.30;2859280;83;21157;-65
2021/03/19 04:12:59;;;;;;;33.25;21.57;;;;;;;3.98;79.32;100322.99;2857428;83;21192;-63
2021/03/19 04:17:29;;;;;;;32.03;22.48;;;;;;;4.02;79.09;100321.89;2853484;83;21184;-66
2021/03/19 04:21:32;;;;;;;42.85;27.70;;;;;;;4.04;79.02;100321.81;2848432;83;21174;-65
2021/03/19 04:25:35;;;;;;;34.45;23.70;;;;;;;3.98;78.91;100329.58;2840789;83;21180;-63
2021/03/19 04:29:39;;;;;;;36.00;23.92;;;;;;;3.95;79.04;100327.11;2820506;84;22216;-65
2021/03/19 04:33:42;;;;;;;37.78;25.97;;;;;;;3.92;79.24;100330.74;2820456;84;21200;-66
2021/03/19 04:37:47;;;;;;;40.38;24.07;;;;;;;3.95;79.50;100325.80;2820615;84;21213;-64
2021/03/19 04:41:53;;;;;;;35.65;25.27;;;;;;;3.99;79.48;100324.69;2820221;84;21615;-64
2021/03/19 04:45:56;;;;;;;44.27;28.27;;;;;;;4.02;79.34;100323.66;2796437;84;21577;-64
2021/03/19 04:49:59;;;;;;;43.75;26.52;;;;;;;4.04;79.16;100322.66;2820551;84;21629;-65
2021/03/19 04:54:03;;;;;;;48.60;28.42;;;;;;;4.02;78.80;100323.20;2820600;84;21643;-64
2021/03/19 04:58:06;;;;;;;49.48;29.75;;;;;;;4.03;78.46;100328.85;2831757;83;21205;-67
2021/03/19 05:02:09;;;;;;;36.40;25.85;;;;;;;4.00;78.24;100329.02;2847697;83;21156;-67
2021/03/19 05:06:13;;;;;;;41.77;30.00;;;;;;;3.96;77.89;100332.75;2832419;83;21149;-67
2021/03/19 05:10:21;;;;;;;42.65;27.13;;;;;;;3.83;77.69;100333.84;2841018;83;21161;-65
2021/03/19 05:14:25;;;;;;;47.27;31.48;;;;;;;3.76;78.07;100343.88;2869109;83;21168;-63
2021/03/19 05:18:28;;;;;;;76.17;47.25;;;;;;;3.76;78.52;100338.61;2868999;83;21173;-68
2021/03/19 05:22:31;;;;;;;67.47;45.67;;;;;;;3.84;78.63;100333.78;2859526;83;21184;-67
2021/03/19 05:26:34;;;;;;;53.45;35.23;;;;;;;3.90;78.24;100340.95;2819670;83;21197;-66
2021/03/19 05:30:39;;;;;;;48.33;32.35;;;;;;;3.95;78.11;100350.80;2821335;83;21174;-67
2021/03/19 05:34:42;;;;;;;55.78;35.33;;;;;;;3.94;77.92;100351.25;2801475;85;21177;-66
2021/03/19 05:38:44;;;;;;;46.28;30.57;;;;;;;4.06;78.10;100353.69;2801788;85;21149;-66
2021/03/19 05:42:47;;;;;;;45.05;31.82;;;;;;;4.22;78.17;100355.02;2801455;85;21880;-65
2021/03/19 05:46:55;;;;;;;54.30;35.05;;;;;;;4.30;77.13;100363.82;2801513;85;21631;-66
2021/03/19 05:50:58;;;;;;;48.42;32.45;;;;;;;4.36;77.22;100358.24;2800822;84;21165;-66
2021/03/19 05:55:18;;;;;;;46.50;30.85;;;;;;;4.33;76.75;100357.55;2801670;85;21129;-66
2021/03/19 05:59:21;;;;;;;44.25;28.32;;;;;;;4.33;76.79;100368.08;2801779;85;21550;-65
2021/03/19 06:03:25;;;;;;;47.65;30.70;;;;;;;4.34;76.66;100371.09;2801314;85;21181;-69
2021/03/19 06:08:02;;;;;;;46.73;32.30;;;;;;;4.32;76.78;100368.53;2801371;84;21490;-65
2021/03/19 06:12:12;;;;;;;50.93;33.00;;;;;;;4.39;76.91;100368.60;2801687;84;21154;-66
2021/03/19 06:16:47;;;;;;;47.83;31.65;;;;;;;4.45;76.78;100371.83;2801512;85;21146;-65
2021/03/19 06:21:14;;;;;;;51.30;33.85;;;;;;;4.52;76.70;100381.08;2801836;85;21205;-65
2021/03/19 06:25:31;;;;;;;67.65;39.75;;;;;;;4.62;76.87;100383.61;2801665;84;21222;-67
2021/03/19 06:29:50;;;;;;;52.03;33.25;;;;;;;4.70;76.04;100388.45;2773685;85;21589;-65
2021/03/19 06:34:15;;;;;;;43.52;30.50;;;;;;;4.64;75.76;100394.91;2801637;84;21149;-66
2021/03/19 06:38:59;;;;;;;61.95;35.70;;;;;;;4.58;75.24;100397.89;2801757;85;21205;-68
2021/03/19 06:43:28;;;;;;;45.40;33.30;;;;;;;4.42;75.58;100405.76;2801340;85;21611;-69
2021/03/19 06:47:54;;;;;;;57.65;34.75;;;;;;;4.31;75.95;100410.77;2801421;85;21137;-65
2021/03/19 06:52:26;;;;;;;53.30;33.02;;;;;;;4.18;75.90;100406.64;2798918;84;21158;-66
2021/03/19 06:56:30;;;;;;;46.95;32.78;;;;;;;4.16;76.33;100412.45;2728238;87;21525;-64
2021/03/19 07:00:45;;;;;;;51.77;34.03;;;;;;;4.12;76.30;100419.17;2773827;85;21186;-65
2021/03/19 07:04:56;;;;;;;48.92;32.13;;;;;;;4.10;76.58;100417.09;2769424;86;21149;-68
2021/03/19 07:09:41;;;;;;;60.15;35.50;;;;;;;4.05;76.36;100423.55;2769214;85;21639;-68
2021/03/19 07:14:08;;;;;;;49.88;34.73;;;;;;;4.01;76.74;100422.85;2769426;86;21153;-68
2021/03/19 07:18:54;;;;;;;58.20;37.13;;;;;;;3.98;77.29;100417.75;2769676;86;21146;-65
2021/03/19 07:23:08;;;;;;;59.73;36.80;;;;;;;3.78;77.21;100430.61;2769536;84;21158;-64
2021/03/19 07:27:43;;;;;;;55.17;34.57;;;;;;;3.57;78.65;100424.20;2767377;86;21548;-65
2021/03/19 07:32:04;;;;;;;54.75;37.93;;;;;;;3.62;78.66;100427.91;2769531;86;21139;-68
2021/03/19 07:36:38;;;;;;;62.10;39.78;;;;;;;3.70;78.27;100428.37;2769525;86;21158;-67
2021/03/19 07:41:31;;;;;;;63.63;38.35;;;;;;;3.76;79.44;100430.70;2769089;85;22269;-68
2021/03/19 07:45:58;;;;;;;56.75;31.77;;;;;;;3.97;79.62;100435.80;2706909;86;21130;-67
2021/03/19 07:50:27;;;;;;;46.05;32.67;;;;;;;3.96;76.77;100434.92;2769620;84;21180;-67
2021/03/19 07:54:53;;;;;;;57.45;33.33;;;;;;;3.95;78.27;100432.39;2769469;86;21182;-67
2021/03/19 07:59:35;;;;;;;60.10;35.67;;;;;;;4.25;78.72;100429.06;2769745;86;21166;-65
2021/03/19 08:03:40;;;;;;;51.05;32.15;;;;;;;4.55;78.07;100430.52;2769545;85;21389;-66
2021/03/19 08:08:25;;;;;;;54.88;35.92;;;;;;;4.70;77.87;100435.89;2769812;85;21179;-65
2021/03/19 08:12:42;;;;;;;45.05;30.92;;;;;;;4.84;77.14;100439.08;2797943;85;21153;-66
2021/03/19 08:17:03;;;;;;;48.38;30.43;;;;;;;4.82;76.70;100439.63;2801434;84;21117;-71
2021/03/19 08:21:34;;;;;;;39.18;29.10;;;;;;;4.80;76.98;100452.05;2801734;83;21177;-69
2021/03/19 08:25:46;;;;;;;40.95;27.73;;;;;;;4.84;77.96;100450.48;2811699;84;21140;-70
2021/03/19 08:30:16;;;;;;;37.67;25.30;;;;;;;5.00;76.83;100449.61;2820018;84;21164;-66
2021/03/19 08:34:33;;;;;;;41.98;28.32;;;;;;;5.19;77.01;100451.20;2819688;83;21196;-65
2021/03/19 08:38:48;;;;;;;38.65;27.50;;;;;;;5.34;75.47;100458.25;2819926;84;21610;-67
2021/03/19 08:42:53;;;;;;;36.10;25.60;;;;;;;5.57;75.09;100460.03;2819733;83;21171;-71
2021/03/19 08:47:35;;;;;;;42.78;24.95;;;;;;;5.74;74.92;100470.08;2819894;84;21176;-69
2021/03/19 08:51:45;;;;;;;42.38;27.75;;;;;;;6.00;74.67;100467.21;2819445;83;21206;-65
2021/03/19 08:55:52;;;;;;;38.58;27.00;;;;;;;6.47;74.10;100461.33;2819322;83;21183;-67
2021/03/19 08:59:55;;;;;;;51.30;35.25;;;;;;;6.79;72.94;100460.27;2793965;84;21152;-71
2021/03/19 09:03:58;;;;;;;49.27;31.97;;;;;;;6.92;71.15;100468.26;2819831;84;21113;-70
2021/03/19 09:08:22;;;;;;;36.10;24.32;;;;;;;6.83;70.04;100469.23;2820082;83;21168;-68
2021/03/19 09:12:29;;;;;;;46.70;33.73;;;;;;;6.82;69.65;100471.96;2819803;83;21167;-68
2021/03/19 09:16:56;;;;;;;48.25;31.68;;;;;;;6.84;69.51;100466.09;2819921;84;21164;-68
2021/03/19 09:21:32;;;;;;;48.10;28.77;;;;;;;6.89;70.27;100472.42;2819661;83;21666;-68
2021/03/19 09:25:45;;;;;;;34.45;22.75;;;;;;;6.81;69.66;100467.62;2810193;83;21189;-65
2021/03/19 09:29:48;;;;;;;37.23;26.40;;;;;;;6.85;69.24;100467.34;2799460;85;21149;-66
2021/03/19 09:34:00;;;;;;;43.73;27.58;;;;;;;7.06;69.00;100470.02;2799090;85;21153;-66
2021/03/19 09:38:15;;;;;;;45.48;26.23;;;;;;;7.18;68.71;100474.53;2798855;85;21598;-67
2021/03/19 09:42:27;;;;;;;36.13;27.90;;;;;;;7.19;67.82;100470.94;2798937;85;21596;-64
2021/03/19 09:46:31;;;;;;;31.07;21.30;;;;;;;7.17;68.31;100472.83;2799421;84;21706;-67
2021/03/19 09:50:35;;;;;;;45.43;26.95;;;;;;;7.07;66.47;100471.25;2726029;87;21636;-67
2021/03/19 09:54:40;;;;;;;33.58;24.00;;;;;;;6.91;66.61;100472.72;2723756;87;21174;-66
2021/03/19 09:58:47;;;;;;;37.03;24.95;;;;;;;6.83;67.43;100483.78;2799092;85;21169;-67
2021/03/19 10:02:51;;;;;;;34.20;21.57;;;;;;;6.81;67.42;100472.91;2771597;85;21190;-70
2021/03/19 10:06:55;;;;;;;35.98;24.95;;;;;;;6.85;67.37;100473.95;2771342;85;21174;-68
2021/03/19 10:11:08;;;;;;;32.70;18.92;;;;;;;6.95;67.97;100466.28;2771818;85;21173;-66
2021/03/19 10:15:17;;;;;;;42.73;26.10;;;;;;;7.04;66.70;100467.48;2771557;85;21544;-67
2021/03/19 10:19:20;;;;;;;36.85;22.98;;;;;;;7.07;66.69;100466.42;2725973;87;21447;-64
2021/03/19 10:23:31;;;;;;;37.88;24.67;;;;;;;7.07;65.25;100466.42;2799040;85;21133;-68
2021/03/19 10:27:42;;;;;;;38.78;25.70;;;;;;;7.07;66.21;100480.52;2762412;86;21490;-69
2021/03/19 10:31:58;;;;;;;41.40;23.15;;;;;;;7.02;65.39;100472.48;2813093;84;21712;-67
2021/03/19 10:36:09;;;;;;;44.98;30.05;;;;;;;6.98;65.61;100474.02;2739727;86;21722;-66
2021/03/19 10:40:26;;;;;;;36.17;24.98;;;;;;;6.99;66.72;100469.09;2813078;84;21152;-69
2021/03/19 10:44:40;;;;;;;42.78;28.00;;;;;;;7.13;66.42;100475.30;2763329;86;29715;-66
2021/03/19 10:48:58;;;;;;;38.90;26.52;;;;;;;7.18;66.21;100482.46;2812442;84;21173;-70
2021/03/19 10:53:12;;;;;;;27.45;20.68;;;;;;;7.24;66.71;100480.73;2764250;86;21482;-67
2021/03/19 10:57:36;;;;;;;35.88;22.70;;;;;;;7.23;64.54;100472.42;2812351;84;21136;-68
2021/03/19 11:01:46;;;;;;;34.38;20.75;;;;;;;7.34;64.85;100473.05;2763721;86;21155;-68
2021/03/19 11:06:03;;;;;;;32.80;20.60;;;;;;;7.42;64.00;100477.84;2813135;84;21185;-67
2021/03/19 11:10:28;;;;;;;28.42;17.80;;;;;;;7.39;62.58;100468.33;2763705;86;21202;-66
2021/03/19 11:14:32;;;;;;;18.93;14.07;;;;;;;7.33;61.20;100476.64;2787500;84;21125;-68
2021/03/19 11:18:40;;;;;;;22.60;14.18;;;;;;;7.49;62.29;100475.64;2764148;86;21185;-67
2021/03/19 11:22:47;;;;;;;21.20;15.00;;;;;;;7.69;59.42;100468.55;2816988;83;21602;-68
2021/03/19 11:26:58;;;;;;;29.07;18.02;;;;;;;7.91;59.43;100467.59;2863240;83;22219;-68
2021/03/19 11:31:29;;;;;;;28.15;16.25;;;;;;;7.91;59.60;100463.61;2866486;83;21673;-69
2021/03/19 11:35:34;;;;;;;28.15;18.77;;;;;;;7.74;58.33;100473.54;2869228;83;21179;-69
2021/03/19 11:39:45;;;;;;;27.22;17.65;;;;;;;7.56;60.09;100475.14;2868993;83;21642;-67
2021/03/19 11:43:48;;;;;;;21.48;13.68;;;;;;;7.50;60.96;100472.91;2868292;83;21609;-72
2021/03/19 11:48:04;;;;;;;14.87;11.03;;;;;;;7.29;58.39;100472.50;2869220;83;21511;-68
2021/03/19 11:52:14;;;;;;;20.80;10.70;;;;;;;7.13;58.23;100466.88;2868225;83;21146;-69
2021/03/19 11:56:17;;;;;;;23.98;13.13;;;;;;;7.16;57.77;100461.88;2867929;83;21197;-68
2021/03/19 12:00:25;;;;;;;22.70;16.27;;;;;;;7.24;57.26;100460.89;2867866;83;21149;-69
2021/03/19 12:04:29;;;;;;;32.03;16.27;;;;;;;7.38;58.29;100465.77;2867890;83;21141;-68
2021/03/19 12:08:36;;;;;;;28.45;16.40;;;;;;;7.49;60.16;100469.89;2868232;83;21180;-70
2021/03/19 12:12:39;;;;;;;;;;;;;;;7.56;59.64;100465.88;2871052;83;21177;-69
2021/03/19 12:16:44;;;;;;;19.07;13.58;;;;;;;7.64;59.29;100459.20;2868291;83;20171;-72
2021/03/19 12:20:48;;;;;;;17.02;12.28;;;;;;;7.54;57.83;100458.97;2868251;83;21188;-72
2021/03/19 12:24:51;;;;;;;19.12;11.95;;;;;;;7.32;58.06;100465.69;2866822;82;21173;-72
2021/03/19 12:28:54;;;;;;;12.55;8.60;;;;;;;6.94;62.72;100490.16;2771543;85;22251;-69
2021/03/19 12:33:01;;;;;;;11.12;6.87;;;;;;;6.23;69.58;100500.66;2846785;83;21181;-66
2021/03/19 12:37:05;;;;;;;10.40;7.20;;;;;;;5.37;70.95;100483.13;2771555;85;21193;-65
2021/03/19 12:41:07;;;;;;;9.50;8.55;;;;;;;5.14;73.03;100475.22;2847001;83;21130;-65
2021/03/19 12:45:12;;;;;;;12.07;8.15;;;;;;;5.20;74.13;100476.19;2771485;85;21519;-66
2021/03/19 12:49:15;;;;;;;16.93;11.35;;;;;;;5.36;73.79;100476.16;2846964;83;21209;-66
2021/03/19 12:53:22;;;;;;;30.10;19.15;;;;;;;5.41;73.68;100470.17;2771832;85;21193;-65
2021/03/19 12:57:26;;;;;;;193.95;96.12;;;;;;;5.42;73.38;100461.31;2847215;83;21169;-64
2021/03/19 13:01:30;;;;;;;143.20;84.22;;;;;;;5.39;74.99;100456.67;2770233;85;21165;-67
2021/03/19 13:05:36;;;;;;;312.45;168.35;;;;;;;5.38;76.11;100451.86;2846636;83;21182;-65
2021/03/19 13:09:39;;;;;;;66.37;42.23;;;;;;;5.55;76.32;100448.26;2771630;85;21185;-64
2021/03/19 13:13:43;;;;;;;118.62;58.52;;;;;;;5.85;77.78;100448.70;2846935;83;21166;-64
2021/03/19 13:17:47;;;;;;;18.65;10.85;;;;;;;6.18;77.29;100447.27;2818377;84;21161;-63
2021/03/19 13:21:53;;;;;;;19.20;12.05;;;;;;;6.60;78.10;100442.91;2847044;83;21174;-64
2021/03/19 13:25:57;;;;;;;16.05;11.75;;;;;;;7.02;76.94;100427.52;2774369;85;21192;-65
2021/03/19 13:30:01;;;;;;;19.35;10.90;;;;;;;7.41;77.51;100427.19;2861743;83;21133;-64
2021/03/19 13:34:03;;;;;;;14.90;9.65;;;;;;;7.56;75.09;100430.13;2784736;85;21152;-65
2021/03/19 13:38:11;;;;;;;8.38;6.58;;;;;;;7.64;74.76;100433.59;2861774;83;21611;-64
2021/03/19 13:42:14;;;;;;;8.00;5.78;;;;;;;7.24;72.59;100456.92;2785117;85;21173;-63
2021/03/19 13:46:19;;;;;;;6.20;4.50;;;;;;;6.50;75.69;100442.64;2861556;83;21161;-63
2021/03/19 13:50:23;;;;;;;8.30;7.25;;;;;;;6.07;74.36;100438.68;2784554;84;22269;-63
2021/03/19 13:54:26;;;;;;;6.35;5.53;;;;;;;5.93;76.31;100436.36;2827540;84;21158;-62
2021/03/19 13:58:31;;;;;;;7.85;4.95;;;;;;;5.92;76.17;100447.03;2785301;85;21198;-64
2021/03/19 14:02:34;;;;;;;5.10;4.03;;;;;;;5.82;75.42;100451.52;2861588;83;21149;-64
2021/03/19 14:06:40;;;;;;;5.85;3.08;;;;;;;5.51;76.50;100451.16;2832200;84;21202;-64
2021/03/19 14:10:43;;;;;;;4.35;3.17;;;;;;;5.10;77.91;100447.30;2832397;84;21182;-62
2021/03/19 14:14:46;;;;;;;7.45;3.83;;;;;;;4.84;78.72;100451.80;2832659;84;21142;-64
2021/03/19 14:18:49;;;;;;;2.40;1.87;;;;;;;4.69;79.98;100456.11;2832394;84;21634;-62
2021/03/19 14:22:53;;;;;;;3.60;2.52;;;;;;;4.59;79.81;100460.19;2832055;84;21174;-63
2021/03/19 14:26:57;;;;;;;5.78;3.65;;;;;;;4.42;80.03;100468.52;2826508;84;21207;-63
2021/03/19 14:30:59;;;;;;;3.70;3.35;;;;;;;4.34;80.89;100470.73;2817911;84;21187;-63
2021/03/19 14:35:06;;;;;;;2.10;1.45;;;;;;;4.28;81.66;100471.03;2801644;83;21155;-62
2021/03/19 14:39:09;;;;;;;0.95;0.75;;;;;;;4.22;81.52;100468.73;2811520;84;21168;-64
2021/03/19 14:43:12;;;;;;;2.25;1.47;;;;;;;4.18;82.43;100477.73;2771182;85;21133;-62
2021/03/19 14:47:15;;;;;;;1.50;0.70;;;;;;;4.12;82.39;100483.67;2844432;83;21224;-63
2021/03/19 14:51:23;;;;;;;0.40;0.40;;;;;;;4.09;82.31;100473.30;2855777;82;21154;-61
2021/03/19 14:55:29;;;;;;;0.98;0.68;;;;;;;4.07;82.55;100479.12;2817652;82;21624;-59
2021/03/19 14:59:32;;;;;;;3.47;2.40;;;;;;;3.95;82.82;100475.34;2860593;83;21210;-57
2021/03/19 15:03:35;;;;;;;27.75;2.90;;;;;;;3.92;83.10;100479.90;2849975;83;21141;-59
2021/03/19 15:07:40;;;;;;;2.58;2.08;;;;;;;3.99;83.76;100482.14;2856231;83;21729;-61
2021/03/19 15:11:43;;;;;;;3.45;3.02;;;;;;;4.19;83.60;100487.33;2818595;84;21158;-62
2021/03/19 15:15:46;;;;;;;4.30;2.90;;;;;;;4.42;82.95;100481.70;2819651;83;21202;-63
2021/03/19 15:19:49;;;;;;;4.28;2.55;;;;;;;4.50;82.46;100487.87;2855196;83;21164;-60
2021/03/19 15:23:53;;;;;;;3.67;3.37;;;;;;;4.48;82.05;100494.15;2844666;83;21178;-60
2021/03/19 15:27:56;;;;;;;3.37;1.77;;;;;;;4.37;82.39;100512.70;2865243;82;21629;-60
2021/03/19 15:32:03;;;;;;;2.62;2.17;;;;;;;4.14;81.64;100531.00;2865107;83;21166;-59
2021/03/19 15:36:09;;;;;;;2.47;2.25;;;;;;;3.92;82.28;100527.28;2865179;83;21151;-61
2021/03/19 15:40:16;;;;;;;5.62;3.85;;;;;;;3.66;82.98;100533.38;2863229;83;21170;-59
2021/03/19 15:44:19;;;;;;;5.60;3.37;;;;;;;3.37;84.93;100540.91;2847120;83;21583;-61
2021/03/19 15:48:25;;;;;;;5.42;4.08;;;;;;;3.08;86.23;100549.69;2840921;83;21169;-59
2021/03/19 15:52:29;;;;;;;9.15;5.58;;;;;;;2.83;87.47;100541.63;2833300;82;21188;-59
2021/03/19 15:56:32;;;;;;;4.95;3.22;;;;;;;2.59;88.21;100563.27;2837912;83;21212;-59
2021/03/19 16:00:38;;;;;;;13.55;5.45;;;;;;;2.18;89.55;100563.69;2843698;83;21192;-60
2021/03/19 16:04:42;;;;;;;8.08;5.90;;;;;;;2.18;89.55;100563.69;2836593;83;21137;-60
2021/03/19 16:08:48;;;;;;;7.87;4.62;;;;;;;2.23;90.19;100577.94;2846958;83;21197;-59
2021/03/19 16:12:51;;;;;;;7.17;6.45;;;;;;;2.09;90.65;100599.52;2830795;83;21168;-60
2021/03/19 16:16:55;;;;;;;7.10;4.83;;;;;;;1.98;90.72;100595.55;2828437;83;21153;-60
2021/03/19 16:20:58;;;;;;;10.58;6.92;;;;;;;1.87;90.83;100608.72;2853801;81;21210;-62
2021/03/19 16:25:02;;;;;;;10.65;6.08;;;;;;;1.74;90.93;100605.26;2855663;83;21641;-65
2021/03/19 16:29:05;;;;;;;7.67;5.62;;;;;;;1.47;90.87;100612.00;2868346;83;21141;-66
2021/03/19 16:33:09;;;;;;;8.63;5.37;;;;;;;1.47;90.87;100612.00;2868314;83;21571;-64
2021/03/19 16:37:13;;;;;;;12.63;7.70;;;;;;;1.54;91.41;100614.77;2869230;83;21169;-63
2021/03/19 16:41:16;;;;;;;10.50;7.80;;;;;;;1.58;91.57;100619.92;2869119;83;21193;-65
2021/03/19 16:45:20;;;;;;;11.10;7.80;;;;;;;1.61;91.66;100633.75;2869252;83;21204;-62
2021/03/19 16:49:23;;;;;;;14.87;10.18;;;;;;;1.65;91.62;100634.48;2868915;83;21222;-62
2021/03/19 16:53:30;;;;;;;14.95;9.85;;;;;;;1.71;91.61;100646.05;2869030;83;21137;-65
2021/03/19 16:57:35;;;;;;;12.98;9.50;;;;;;;1.73;91.57;100642.06;2868819;83;21741;-65
2021/03/19 17:01:39;;;;;;;11.22;7.35;;;;;;;1.76;91.60;100650.64;2868689;83;21718;-64
2021/03/19 17:05:45;;;;;;;18.07;11.95;;;;;;;1.81;91.79;100656.59;2868275;83;21181;-63
2021/03/19 17:09:49;;;;;;;14.55;9.85;;;;;;;1.84;91.41;100656.46;2868254;83;21188;-63
2021/03/19 17:13:55;;;;;;;12.50;9.78;;;;;;;1.84;91.41;100661.70;2868130;83;21133;-66
2021/03/19 17:18:02;;;;;;;15.63;9.50;;;;;;;1.89;91.42;100664.59;2868108;83;21632;-63
2021/03/19 17:22:08;;;;;;;11.78;8.65;;;;;;;1.89;91.29;100677.72;2868024;83;21624;-66
2021/03/19 17:26:14;;;;;;;13.40;9.23;;;;;;;1.82;91.54;100663.54;2868262;83;21161;-65
2021/03/19 17:30:20;;;;;;;10.80;7.92;;;;;;;1.99;91.42;100689.57;2868316;83;21505;-63
2021/03/19 17:34:26;;;;;;;10.70;6.95;;;;;;;1.99;91.15;100695.66;2868072;83;21570;-65
2021/03/19 17:38:31;;;;;;;13.88;8.05;;;;;;;2.01;91.09;100695.61;2867860;82;21611;-64
2021/03/19 17:42:35;;;;;;;13.75;7.22;;;;;;;2.06;91.32;100698.03;2868258;83;21615;-64
2021/03/19 17:46:38;;;;;;;13.55;10.75;;;;;;;2.14;91.49;100705.16;2868096;83;21712;-64
2021/03/19 17:50:44;;;;;;;12.15;10.43;;;;;;;2.26;91.51;100698.55;2867981;83;21161;-65
2021/03/19 17:54:47;;;;;;;12.28;8.80;;;;;;;2.34;91.31;100702.19;2867771;83;21185;-65
2021/03/19 17:58:51;;;;;;;12.70;10.53;;;;;;;2.35;91.02;100702.11;2867582;83;21160;-65
2021/03/19 18:02:54;;;;;;;14.95;9.65;;;;;;;2.40;91.27;100700.61;2867272;82;21187;-62
2021/03/19 18:06:57;;;;;;;21.65;10.15;;;;;;;2.52;91.40;100705.81;2862095;83;21564;-62
2021/03/19 18:11:02;;;;;;;11.83;8.53;;;;;;;2.61;91.50;100704.13;2865247;82;21226;-62
2021/03/19 18:15:08;;;;;;;16.80;10.65;;;;;;;2.73;91.83;100705.39;2836185;83;21611;-62
2021/03/19 18:19:11;;;;;;;21.80;14.07;;;;;;;2.87;91.55;100715.30;2857271;83;21238;-62
2021/03/19 18:23:23;;;;;;;10.90;8.73;;;;;;;2.94;91.47;100714.58;2853208;83;21183;-61
2021/03/19 18:27:30;;;;;;;16.10;11.65;;;;;;;2.92;91.04;100729.56;2843779;83;21162;-61
2021/03/19 18:31:33;;;;;;;9.90;6.72;;;;;;;2.90;90.87;100728.78;2855271;83;21138;-60
2021/03/19 18:35:38;;;;;;;14.38;9.10;;;;;;;2.91;90.26;100727.38;2846955;83;21604;-61
2021/03/19 18:39:42;;;;;;;16.57;12.88;;;;;;;2.87;90.09;100732.38;2849930;83;21203;-60
2021/03/19 18:43:45;;;;;;;17.20;11.20;;;;;;;2.80;89.02;100741.45;2860254;83;21177;-60
2021/03/19 18:47:50;;;;;;;18.70;12.80;;;;;;;2.69;88.26;100738.80;2764417;84;21166;-60
2021/03/19 18:51:52;;;;;;;25.92;14.30;;;;;;;2.45;87.95;100751.64;2838340;83;21153;-60
2021/03/19 18:55:56;;;;;;;31.02;19.30;;;;;;;2.27;87.62;100758.02;2827795;83;21190;-61
2021/03/19 18:59:59;;;;;;;27.73;18.27;;;;;;;2.21;88.84;100756.48;2842779;83;21212;-60
2021/03/19 19:04:02;;;;;;;19.85;11.63;;;;;;;2.21;88.75;100759.58;2861822;83;21573;-61
2021/03/19 19:08:07;;;;;;;28.87;15.15;;;;;;;2.17;87.83;100765.41;2864610;83;21166;-62
2021/03/19 19:12:12;;;;;;;15.05;11.83;;;;;;;2.04;87.48;100779.46;2780668;85;21510;-61
2021/03/19 19:16:16;;;;;;;27.70;18.20;;;;;;;1.97;88.09;100778.84;2820425;83;21617;-61
2021/03/19 19:20:25;;;;;;;27.52;18.15;;;;;;;2.02;88.68;100783.92;2823623;83;21254;-61